KXMR

Details ICAO KXMR
Name CAPE CANAVERAL AFS SKID STRIP
Region United States
Timezone America/New_York (UTC-4.0)
Plans Departing 13
Arriving 28
Stats Elevation 10 ft / 3 m (AMSL)
Location 28.467586° -80.566615°
Runways 1
Magnetic Variation 6.912° W
Sunrise 2018-05-24 10:28:53 UTC / 2018-05-24 06:28:53 Local
Sunset 2018-05-25 00:12:15 UTC / 2018-05-24 20:12:15 Local
Advertisement - Login to hide

Runways

ID Width Length Bearing (true) Bearing (mag) Surface Threshold Offset Overrun Length
13 200 ft / 61 m 10,002 ft / 3,049 m 127.93° 134.84° Asphalt 0 ft / 0 m 0 ft / 0 m
31 200 ft / 61 m 10,002 ft / 3,049 m 307.94° 314.85° Asphalt 0 ft / 0 m 0 ft / 0 m

Map

Weather


0- 5 10 15 20 25 30 35+ Temperature / ° C

Clouds and Precipitation
Forecast for 2018-05-24 12:00 UTC. Updated 3 hours ago

Ground ~20,000 ft ~40,000 ft Winds

METAR

KXMR 241356Z AUTO 13005KT 10SM FEW019 27/22 A3011 RMK AO2 SLP199 T02650219 FZRANO $

TAF

Not found

Frequencies

Tower 118.62 MHz CAPE TWR
Approach 134.95 MHz ORLANDO APP/DEP
Warning: Do not use this data for real-world aviation or navigation. No guarantee of current accuracy is given.